Terminal Aerodrome Forecast
Issued by NWS Twin Cities, MN

Home | Current Version | Previous Version | Text Only | Print | Product List | Glossary Off
Versions: 1 2 3 4 5 6 7 8 9 10 11 12 13 14 15 16 17 18 19 20 21 22 23 24 25 26 27 28 29

000
FTUS43 KMPX 171100
TAFMSP
TAF
KMSP 171127Z 1712/1818 29015G21KT P6SM SCT015 OVC025
     FM171500 31018G24KT P6SM OVC025
     FM172200 33013G21KT P6SM BKN035
     FM180200 34010KT P6SM OVC020
     FM181500 35006KT P6SM SCT025=

USA.gov is the U.S. government's official web portal to all federal, state and local government web resources and services.